createdAt,value
2022-10-13T03:01:41.163Z,23.65
2022-10-13T03:04:09.268Z,21.38
2022-10-13T03:06:36.615Z,19.10
2022-10-13T03:09:04.449Z,19.30
2022-10-13T03:11:31.611Z,21.92
2022-10-13T03:13:58.733Z,22.13
2022-10-13T03:16:26.085Z,24.13
2022-10-13T03:18:53.204Z,17.75
2022-10-13T03:21:20.447Z,20.83
2022-10-13T03:23:47.703Z,24.48
2022-10-13T03:26:15.588Z,23.13
2022-10-13T03:28:50.359Z,16.17
2022-10-13T03:31:18.311Z,14.57
2022-10-13T03:33:45.712Z,19.40
2022-10-13T03:36:13.582Z,17.08
2022-10-13T03:38:41.046Z,21.95
2022-10-13T03:41:13.291Z,14.45
2022-10-13T03:43:41.561Z,19.77
2022-10-13T03:46:12.355Z,13.38
2022-10-13T03:48:39.965Z,21.27
2022-10-13T03:51:21.113Z,21.00
2022-10-13T03:53:49.909Z,23.30
2022-10-13T03:56:21.035Z,17.77
2022-10-13T03:58:53.476Z,16.17
2022-10-13T04:01:23.352Z,19.98
2022-10-13T04:03:52.381Z,14.40
2022-10-13T04:06:19.921Z,16.40
2022-10-13T04:08:47.404Z,15.85
2022-10-13T04:11:15.849Z,21.67
2022-10-13T04:13:43.589Z,21.13
2022-10-13T04:16:23.551Z,26.75
2022-10-13T04:18:53.245Z,21.95
2022-10-13T04:21:21.437Z,23.33
2022-10-13T04:23:48.680Z,22.15
2022-10-13T04:26:18.437Z,18.50
2022-10-13T04:28:47.368Z,19.38
2022-10-13T04:31:14.789Z,22.60
2022-10-13T04:33:42.376Z,23.52
2022-10-13T04:36:11.528Z,23.77
2022-10-13T04:38:38.823Z,20.67
2022-10-13T04:41:07.260Z,22.88
2022-10-13T04:43:34.676Z,20.38
2022-10-13T04:46:07.364Z,20.35
2022-10-13T04:48:34.686Z,20.88
2022-10-13T04:51:03.622Z,24.85
2022-10-13T04:53:31.942Z,22.45
2022-10-13T04:56:08.485Z,19.92
2022-10-13T04:58:36.663Z,21.67
2022-10-13T05:01:05.755Z,19.35
2022-10-13T05:03:33.554Z,24.98
2022-10-13T05:06:00.732Z,20.45
2022-10-13T05:08:28.041Z,20.23
2022-10-13T05:10:55.076Z,17.90
2022-10-13T05:13:22.276Z,18.50
2022-10-13T05:15:49.990Z,18.95
2022-10-13T05:18:17.363Z,18.88
2022-10-13T05:20:44.573Z,22.50
2022-10-13T05:23:11.863Z,19.30
2022-10-13T05:25:39.760Z,18.17
2022-10-13T05:28:07.963Z,16.45
2022-10-13T05:30:35.402Z,17.85
2022-10-13T05:33:02.614Z,22.20
2022-10-13T05:35:29.797Z,18.73
2022-10-13T05:37:56.915Z,21.55
2022-10-13T05:40:24.103Z,21.00
2022-10-13T05:42:52.299Z,19.42
2022-10-13T05:45:21.662Z,17.17
2022-10-13T05:47:48.900Z,24.73
2022-10-13T05:50:16.379Z,19.88
2022-10-13T05:52:44.900Z,17.65
2022-10-13T05:55:15.392Z,14.88
2022-10-13T05:57:47.319Z,17.05
2022-10-13T06:00:18.122Z,16.00
2022-10-13T06:02:58.272Z,16.58
2022-10-13T06:05:27.356Z,16.67
2022-10-13T06:07:55.991Z,17.00
2022-10-13T06:10:23.523Z,18.35
2022-10-13T06:12:50.656Z,13.57
2022-10-13T06:15:17.869Z,23.50
2022-10-13T06:17:45.310Z,16.80
2022-10-13T06:20:12.746Z,15.93
2022-10-13T06:22:40.072Z,15.02
2022-10-13T06:25:08.119Z,17.05
2022-10-13T06:27:35.264Z,18.00
2022-10-13T06:30:03.285Z,17.98
2022-10-13T06:32:30.408Z,19.08
2022-10-13T06:34:57.692Z,19.65
2022-10-13T06:37:27.506Z,18.65
2022-10-13T06:39:54.843Z,17.77
2022-10-13T06:42:22.441Z,15.48
2022-10-13T06:44:49.921Z,17.50
2022-10-13T06:47:17.025Z,15.45
2022-10-13T06:49:44.168Z,17.33
2022-10-13T06:52:11.263Z,18.17
2022-10-13T06:54:38.804Z,16.48
2022-10-13T06:57:06.681Z,21.45
2022-10-13T06:59:34.084Z,18.02
2022-10-13T07:02:01.212Z,16.08
2022-10-13T07:04:28.445Z,18.75
2022-10-13T07:06:55.627Z,17.45
2022-10-13T07:09:22.769Z,17.65
2022-10-13T07:11:50.272Z,17.98
2022-10-13T07:14:17.421Z,17.23
2022-10-13T07:16:44.582Z,17.55
2022-10-13T07:19:11.882Z,22.15
2022-10-13T07:21:39.039Z,18.10
2022-10-13T07:24:06.938Z,18.95
2022-10-13T07:26:34.125Z,19.10
2022-10-13T07:29:02.059Z,16.77
2022-10-13T07:31:29.251Z,22.38
2022-10-13T07:33:59.554Z,20.25
2022-10-13T07:36:27.487Z,18.25
2022-10-13T07:38:54.706Z,19.33
2022-10-13T07:41:21.814Z,18.25
2022-10-13T07:43:48.966Z,16.65
2022-10-13T07:46:16.205Z,18.88
2022-10-13T07:48:43.441Z,14.70
2022-10-13T07:51:12.791Z,15.38
2022-10-13T07:53:41.887Z,10.07
2022-10-13T07:56:12.164Z,10.45
2022-10-13T07:58:41.472Z,11.05
2022-10-13T08:01:09.164Z,9.02
2022-10-13T08:06:09.415Z,9.50
2022-10-13T08:08:37.225Z,10.73
2022-10-13T08:11:06.693Z,7.30
2022-10-13T08:13:34.090Z,9.57
2022-10-13T08:16:01.630Z,13.05
2022-10-13T08:18:30.358Z,12.43
2022-10-13T08:21:23.916Z,13.93
2022-10-13T08:23:48.686Z,11.07
2022-10-13T08:26:25.274Z,13.38
2022-10-13T08:31:41.562Z,8.93
2022-10-13T08:34:09.639Z,8.27
2022-10-13T08:36:37.798Z,10.35
2022-10-13T08:39:05.080Z,11.57
2022-10-13T08:41:36.730Z,16.40
2022-10-13T08:47:29.384Z,13.25
2022-10-13T08:50:03.954Z,11.70
2022-10-13T08:52:48.738Z,18.08
2022-10-13T08:55:36.733Z,15.68
2022-10-13T08:58:17.732Z,13.00
2022-10-13T09:00:44.952Z,17.33
2022-10-13T09:03:29.492Z,16.65
2022-10-13T09:06:21.063Z,13.63
2022-10-13T09:08:58.597Z,14.48
2022-10-13T09:11:28.443Z,17.55
2022-10-13T09:13:58.844Z,14.43
2022-10-13T09:16:47.213Z,15.10
2022-10-13T09:19:26.367Z,13.48
2022-10-13T09:21:56.849Z,17.42
2022-10-13T09:24:26.780Z,15.80
2022-10-13T09:27:12.141Z,13.75
2022-10-13T09:29:39.959Z,15.88
2022-10-13T09:32:25.074Z,17.30
2022-10-13T09:34:52.861Z,20.00
2022-10-13T09:37:25.143Z,13.75
2022-10-13T09:40:19.583Z,16.17
2022-10-13T09:42:53.244Z,15.23
2022-10-13T09:45:23.168Z,15.13
2022-10-13T09:48:24.614Z,13.40
2022-10-13T09:50:54.915Z,18.05
2022-10-13T09:53:37.775Z,11.65
2022-10-13T09:56:25.454Z,19.02
2022-10-13T09:59:16.828Z,13.43
2022-10-13T10:01:47.429Z,15.55
2022-10-13T10:04:20.416Z,13.90
2022-10-13T10:06:47.858Z,17.63
2022-10-13T10:09:36.465Z,15.32
2022-10-13T10:12:05.276Z,14.75
2022-10-13T10:14:36.200Z,15.38
2022-10-13T10:17:35.663Z,16.73
2022-10-13T10:20:47.248Z,17.52
2022-10-13T10:23:48.852Z,16.92
2022-10-13T10:26:31.616Z,19.00
2022-10-13T10:29:12.319Z,17.13
2022-10-13T10:31:59.696Z,21.98
2022-10-13T10:34:42.908Z,13.98
2022-10-13T10:37:25.488Z,19.88
2022-10-13T10:40:10.931Z,16.17
2022-10-13T10:42:46.295Z,16.65
2022-10-13T10:45:27.826Z,17.13
2022-10-13T10:48:02.637Z,17.50
2022-10-13T10:50:30.857Z,18.25
2022-10-13T10:53:02.995Z,22.73
2022-10-13T10:55:44.868Z,16.48
2022-10-13T10:58:33.539Z,14.40
2022-10-13T11:01:06.788Z,16.70
2022-10-13T11:03:52.499Z,20.17
2022-10-13T11:06:26.229Z,15.40
2022-10-13T11:08:55.301Z,16.52
2022-10-13T11:11:25.181Z,21.00
2022-10-13T11:13:56.787Z,16.98
2022-10-13T11:16:59.202Z,16.48
2022-10-13T11:19:39.985Z,13.52
2022-10-13T11:22:07.064Z,18.30
2022-10-13T11:24:46.153Z,17.77
2022-10-13T11:27:16.017Z,19.52
2022-10-13T11:29:46.627Z,17.58
2022-10-13T11:32:26.020Z,16.42
2022-10-13T11:35:05.514Z,17.08
2022-10-13T11:38:06.748Z,16.98
2022-10-13T11:40:44.110Z,16.83
2022-10-13T11:43:29.845Z,18.80
2022-10-13T11:46:25.781Z,15.43
2022-10-13T11:49:01.901Z,16.02
2022-10-13T11:51:59.826Z,19.50
2022-10-13T11:54:48.899Z,12.75
2022-10-13T11:57:24.230Z,17.23
2022-10-13T11:59:55.396Z,13.63
2022-10-13T12:02:26.197Z,16.42
2022-10-13T12:05:24.485Z,11.75
2022-10-13T12:07:55.195Z,14.38
2022-10-13T12:10:31.421Z,15.00
2022-10-13T12:12:59.287Z,16.58
2022-10-13T12:15:36.307Z,18.02
2022-10-13T12:18:23.893Z,14.32
2022-10-13T12:20:56.572Z,17.00
2022-10-13T12:23:24.627Z,15.10
2022-10-13T12:25:57.949Z,13.10
2022-10-13T12:28:28.750Z,15.43
2022-10-13T12:30:58.731Z,14.63
2022-10-13T12:33:31.613Z,17.17
2022-10-13T12:36:18.341Z,13.75
2022-10-13T12:38:54.213Z,13.95
2022-10-13T12:41:27.258Z,13.43
2022-10-13T12:43:55.559Z,13.95
2022-10-13T12:46:46.204Z,13.88
2022-10-13T12:49:15.769Z,14.32
2022-10-13T12:51:46.787Z,17.33
2022-10-13T12:54:22.177Z,14.85
2022-10-13T12:56:55.218Z,13.25
2022-10-13T12:59:25.962Z,14.15
2022-10-13T13:01:59.089Z,13.60
2022-10-13T13:04:30.835Z,13.90
2022-10-13T13:07:00.508Z,12.45
2022-10-13T13:09:29.459Z,12.50
2022-10-13T13:12:08.274Z,12.40
2022-10-13T13:14:38.464Z,15.43
2022-10-13T13:17:38.555Z,9.95
2022-10-13T13:20:22.003Z,9.10
2022-10-13T13:22:50.719Z,9.68
2022-10-13T13:25:17.932Z,7.90
2022-10-13T13:27:45.383Z,15.70
2022-10-13T13:30:14.520Z,9.50
2022-10-13T13:32:41.985Z,9.88
2022-10-13T13:35:09.877Z,10.35
2022-10-13T13:37:41.698Z,10.68
2022-10-13T13:40:15.680Z,11.27
2022-10-13T13:42:42.865Z,10.07
2022-10-13T13:45:14.478Z,9.75
2022-10-13T13:47:42.023Z,9.18
2022-10-13T13:50:21.409Z,10.07
2022-10-13T13:52:48.646Z,10.50
2022-10-13T13:55:15.924Z,13.95
2022-10-13T13:57:44.108Z,11.00
2022-10-13T14:00:13.673Z,9.02
2022-10-13T14:02:42.738Z,11.05
2022-10-13T14:05:11.149Z,10.80
2022-10-13T14:07:38.856Z,11.07
2022-10-13T14:10:07.501Z,8.98
2022-10-13T14:12:34.976Z,9.50
2022-10-13T14:15:02.352Z,8.65
2022-10-13T14:17:29.541Z,10.40
2022-10-13T14:19:56.665Z,10.25
2022-10-13T14:22:24.115Z,10.55
2022-10-13T14:24:51.432Z,9.63
2022-10-13T14:27:18.541Z,12.65
2022-10-13T14:29:45.713Z,11.63
2022-10-13T14:32:12.897Z,11.15
2022-10-13T14:34:40.185Z,10.20
2022-10-13T14:37:07.340Z,10.00
2022-10-13T14:39:34.562Z,9.60
2022-10-13T14:42:01.789Z,8.05
2022-10-13T14:44:28.936Z,8.13
2022-10-13T14:46:56.441Z,9.93
2022-10-13T14:49:23.690Z,6.95
2022-10-13T14:51:50.885Z,9.07
2022-10-13T14:54:18.157Z,9.05
2022-10-13T14:56:45.508Z,10.50
2022-10-13T14:59:12.900Z,11.10
2022-10-13T15:01:41.590Z,6.65
2022-10-13T15:04:09.126Z,7.70
2022-10-13T15:06:39.843Z,7.97
2022-10-13T15:11:36.736Z,7.78
2022-10-13T15:14:04.044Z,11.70
2022-10-13T15:16:33.568Z,7.13
2022-10-13T15:19:00.855Z,7.80
2022-10-13T15:21:28.056Z,11.45
2022-10-13T15:23:56.354Z,8.52
2022-10-13T15:26:23.471Z,8.40
2022-10-13T15:28:52.533Z,10.13
2022-10-13T15:31:21.794Z,12.90
2022-10-13T15:33:51.778Z,8.73
2022-10-13T15:36:21.215Z,8.15
2022-10-13T15:38:48.425Z,16.30
2022-10-13T15:41:16.160Z,9.90
2022-10-13T15:43:43.726Z,11.23
2022-10-13T15:46:12.593Z,10.70
2022-10-13T15:48:40.141Z,8.65
2022-10-13T15:51:15.600Z,11.68
2022-10-13T15:53:43.157Z,7.63
2022-10-13T15:56:10.257Z,10.20
2022-10-13T15:58:37.796Z,9.10
2022-10-13T16:01:09.282Z,7.20
2022-10-13T16:03:36.769Z,8.65
2022-10-13T16:06:09.011Z,7.05
2022-10-13T16:08:40.863Z,6.05
2022-10-13T16:11:12.486Z,7.07
2022-10-13T16:13:40.637Z,7.40
2022-10-13T16:16:07.927Z,8.48
2022-10-13T16:18:37.229Z,10.23
2022-10-13T16:21:19.580Z,8.40
2022-10-13T16:23:47.863Z,6.10
2022-10-13T16:26:17.560Z,9.95
2022-10-13T16:28:45.804Z,8.07
2022-10-13T16:31:15.084Z,7.20
2022-10-13T16:33:43.764Z,9.25
2022-10-13T16:36:13.792Z,5.97
2022-10-13T16:38:41.897Z,9.00
2022-10-13T16:41:13.912Z,9.70
2022-10-13T16:43:42.243Z,8.07
2022-10-13T16:46:13.390Z,10.88
2022-10-13T16:48:41.106Z,10.85
2022-10-13T16:51:12.033Z,11.50
2022-10-13T16:53:39.475Z,6.28
2022-10-13T16:56:07.925Z,7.68
2022-10-13T16:58:35.691Z,7.65
2022-10-13T17:01:11.352Z,7.30
2022-10-13T17:03:39.631Z,10.55
2022-10-13T17:06:07.214Z,10.57
2022-10-13T17:08:34.544Z,9.52
2022-10-13T17:11:02.235Z,7.13
2022-10-13T17:13:30.664Z,12.05
2022-10-13T17:15:58.518Z,7.95
2022-10-13T17:18:27.106Z,12.75
2022-10-13T17:20:59.454Z,14.93
2022-10-13T17:23:27.490Z,11.38
2022-10-13T17:25:55.493Z,16.73
2022-10-13T17:28:22.915Z,10.45
2022-10-13T17:31:01.298Z,11.25
2022-10-13T17:33:30.398Z,11.38
2022-10-13T17:36:02.131Z,13.32
2022-10-13T17:38:29.792Z,13.18
2022-10-13T17:41:04.240Z,15.15
2022-10-13T17:43:33.335Z,11.43
2022-10-13T17:46:35.799Z,14.13
2022-10-13T17:49:03.132Z,10.50
2022-10-13T17:51:30.379Z,8.98
2022-10-13T17:53:59.556Z,9.98
2022-10-13T17:56:26.809Z,13.48
2022-10-13T17:58:54.300Z,13.52
2022-10-13T18:01:23.019Z,14.35
2022-10-13T18:03:55.631Z,10.88
2022-10-13T18:06:23.467Z,12.68
2022-10-13T18:08:50.792Z,10.45
2022-10-13T18:11:20.286Z,13.05
2022-10-13T18:13:47.937Z,12.50
2022-10-13T18:16:20.583Z,13.32
2022-10-13T18:18:49.961Z,15.13
2022-10-13T18:21:19.552Z,13.05
2022-10-13T18:23:46.770Z,11.77
2022-10-13T18:26:19.174Z,14.88
2022-10-13T18:28:47.954Z,11.43
2022-10-13T18:31:17.757Z,10.18
2022-10-13T18:33:45.374Z,12.02
2022-10-13T18:36:23.347Z,12.50
2022-10-13T18:38:51.913Z,12.75
2022-10-13T18:41:22.782Z,10.02
2022-10-13T18:43:50.400Z,10.68
2022-10-13T18:46:18.943Z,9.70
2022-10-13T18:48:46.304Z,9.90
2022-10-13T18:51:15.532Z,9.00
2022-10-13T18:53:45.009Z,8.80
2022-10-13T18:56:14.999Z,15.38
2022-10-13T18:58:42.235Z,8.63
2022-10-13T19:01:12.309Z,8.07
2022-10-13T19:03:40.999Z,8.77
2022-10-13T19:06:10.264Z,7.82
2022-10-13T19:08:37.657Z,7.70
2022-10-13T19:11:19.803Z,11.00
2022-10-13T19:13:48.083Z,14.43
2022-10-13T19:16:18.748Z,15.30
2022-10-13T19:18:46.322Z,14.27
2022-10-13T19:21:13.846Z,10.27
2022-10-13T19:23:41.478Z,12.60
2022-10-13T19:26:14.813Z,11.98
2022-10-13T19:28:43.472Z,12.63
2022-10-13T19:31:12.539Z,11.40
2022-10-13T19:33:44.680Z,11.57
2022-10-13T19:36:25.024Z,16.77
2022-10-13T19:38:52.744Z,10.98
2022-10-13T19:41:20.041Z,16.65
2022-10-13T19:43:47.161Z,11.50
2022-10-13T19:46:14.746Z,11.65
2022-10-13T19:48:41.953Z,10.82
2022-10-13T19:51:10.544Z,11.30
2022-10-13T19:53:38.811Z,14.05
2022-10-13T19:56:06.561Z,9.60
2022-10-13T19:58:34.001Z,13.05
2022-10-13T20:01:06.167Z,9.85
2022-10-13T20:03:33.372Z,9.13
2022-10-13T20:06:04.683Z,10.18
2022-10-13T20:08:31.969Z,9.15
2022-10-13T20:11:00.618Z,12.65
2022-10-13T20:13:27.743Z,11.95
2022-10-13T20:15:54.885Z,15.60
2022-10-13T20:18:22.097Z,20.27
2022-10-13T20:20:49.242Z,16.80
2022-10-13T20:23:16.369Z,12.10
2022-10-13T20:25:43.599Z,12.35
2022-10-13T20:28:10.757Z,11.55
2022-10-13T20:30:39.668Z,12.23
2022-10-13T20:33:06.881Z,8.30
2022-10-13T20:35:34.022Z,8.40
2022-10-13T20:38:01.217Z,7.88
2022-10-13T20:40:28.403Z,9.23
2022-10-13T20:42:55.565Z,9.00
2022-10-13T20:45:22.795Z,10.27
2022-10-13T20:47:50.089Z,7.15
2022-10-13T20:50:17.292Z,8.80
2022-10-13T20:52:44.479Z,7.38
2022-10-13T20:55:11.612Z,7.85
2022-10-13T20:57:38.803Z,7.97
2022-10-13T21:00:06.501Z,9.10
